LPPS/PXO METAR and TAF weather

Enter ICAO airport designator
Station Type Date Time Source
LPPS METAR 2022/11/26 08:00 UTC NOAA

LPPS 260800Z VRB02KT 9999 SCT015 19/14 Q1024


Station Type Date Time Source
LPPS Decoded METAR 2022/11/26 08:00 UTC NOAA

Porto Santo, Portugal (LPPS) 33-04N 016-21W 82M
Nov 26, 2022 - 03:00 AM EST / 2022.11.26 0800 UTC
Wind: Variable at 2 MPH (2 KT):0
Visibility: greater than 7 mile(s):0
Sky conditions: partly cloudy
Temperature: 66 F (19 C)
Dew Point: 57 F (14 C)
Relative Humidity: 72%
Pressure (altimeter): 30.24 in. Hg (1024 hPa)
ob: LPPS 260800Z VRB02KT 9999 SCT015 19/14 Q1024
cycle: 8

Station Type Date Time Source
LPPS TAF 2022/11/26 06:18 UTC NOAA

TAF LPPS 260500Z 2606/2712 10007KT 9999 SCT015
BECMG 2612/2615 VRB05KT
BECMG 2706/2709 36008KT

Example: see airport list